createdAt,value
2023-04-25T00:02:09.945Z,1.30
2023-04-25T00:04:39.544Z,1.13
2023-04-25T00:07:06.857Z,1.20
2023-04-25T00:09:34.021Z,1.20
2023-04-25T00:12:02.583Z,1.10
2023-04-25T00:14:30.410Z,1.10
2023-04-25T00:16:57.352Z,1.23
2023-04-25T00:19:24.023Z,1.27
2023-04-25T00:21:51.218Z,1.20
2023-04-25T00:24:18.011Z,1.37
2023-04-25T00:26:44.772Z,1.30
2023-04-25T00:29:11.497Z,1.40
2023-04-25T00:31:38.398Z,1.40
2023-04-25T00:34:05.192Z,1.40
2023-04-25T00:36:32.560Z,1.43
2023-04-25T00:38:59.404Z,1.40
2023-04-25T00:41:27.874Z,1.47
2023-04-25T00:43:55.934Z,1.30
2023-04-25T00:46:22.877Z,1.47
2023-04-25T00:48:49.534Z,1.53
2023-04-25T00:51:20.312Z,1.63
2023-04-25T00:53:49.297Z,1.50
2023-04-25T00:56:16.811Z,1.40
2023-04-25T00:58:44.592Z,1.40
2023-04-25T01:01:12.828Z,1.40
2023-04-25T01:03:44.053Z,1.70
2023-04-25T01:06:12.421Z,1.60
2023-04-25T01:08:40.545Z,1.50
2023-04-25T01:11:07.862Z,1.80
2023-04-25T01:13:35.103Z,1.30
2023-04-25T01:16:03.590Z,1.63
2023-04-25T01:18:30.479Z,1.57
2023-04-25T01:21:08.024Z,1.60
2023-04-25T01:23:34.801Z,1.70
2023-04-25T01:26:02.400Z,1.63
2023-04-25T01:28:29.575Z,1.70
2023-04-25T01:30:57.735Z,1.60
2023-04-25T01:33:24.697Z,1.80
2023-04-25T01:35:52.734Z,1.70
2023-04-25T01:38:19.625Z,1.80
2023-04-25T01:40:50.596Z,1.70
2023-04-25T01:43:17.616Z,1.70
2023-04-25T01:45:44.316Z,1.73
2023-04-25T01:48:13.813Z,1.63
2023-04-25T01:50:41.406Z,1.60
2023-04-25T01:53:10.205Z,1.60
2023-04-25T01:55:36.981Z,1.60
2023-04-25T01:58:04.292Z,1.63
2023-04-25T02:00:30.947Z,1.80
2023-04-25T02:03:00.879Z,2.00
2023-04-25T02:05:27.585Z,1.90
2023-04-25T02:07:54.217Z,1.87
2023-04-25T02:10:21.070Z,1.60
2023-04-25T02:12:47.736Z,1.70
2023-04-25T02:15:14.498Z,1.63
2023-04-25T02:17:41.373Z,1.80
2023-04-25T02:20:08.504Z,1.70
2023-04-25T02:22:36.541Z,1.93
2023-04-25T02:25:05.795Z,1.80
2023-04-25T02:27:32.475Z,2.03
2023-04-25T02:29:59.348Z,2.17
2023-04-25T02:32:26.155Z,2.23
2023-04-25T02:34:52.935Z,2.60
2023-04-25T02:37:19.622Z,2.10
2023-04-25T02:39:46.444Z,2.47
2023-04-25T02:42:13.205Z,2.10
2023-04-25T02:44:39.893Z,2.03
2023-04-25T02:47:06.562Z,2.20
2023-04-25T02:49:33.269Z,2.07
2023-04-25T02:52:00.126Z,1.90
2023-04-25T02:54:27.005Z,2.23
2023-04-25T02:56:53.668Z,2.30
2023-04-25T02:59:20.579Z,2.37
2023-04-25T03:01:47.291Z,2.30
2023-04-25T03:04:14.080Z,2.43
2023-04-25T03:06:40.913Z,2.47
2023-04-25T03:09:07.749Z,2.33
2023-04-25T03:11:34.683Z,2.30
2023-04-25T03:14:01.415Z,2.20
2023-04-25T03:16:28.270Z,2.73
2023-04-25T03:18:54.920Z,2.70
2023-04-25T03:21:21.638Z,2.97
2023-04-25T03:23:48.871Z,2.80
2023-04-25T03:26:15.774Z,2.70
2023-04-25T03:28:42.950Z,2.53
2023-04-25T03:31:09.760Z,2.67
2023-04-25T03:33:36.480Z,2.83
2023-04-25T03:36:03.277Z,2.87
2023-04-25T03:38:30.148Z,2.83
2023-04-25T03:40:57.520Z,2.97
2023-04-25T03:43:24.247Z,2.80
2023-04-25T03:45:51.151Z,2.80
2023-04-25T03:48:17.957Z,2.80
2023-04-25T03:50:44.575Z,2.70
2023-04-25T03:53:11.189Z,2.87
2023-04-25T03:55:39.508Z,2.77
2023-04-25T03:58:07.033Z,2.73
2023-04-25T04:00:35.080Z,2.70
2023-04-25T04:03:02.090Z,2.70
2023-04-25T04:05:30.389Z,2.50
2023-04-25T04:07:57.228Z,2.97
2023-04-25T04:10:24.002Z,3.00
2023-04-25T04:12:50.654Z,2.57
2023-04-25T04:15:17.572Z,2.60
2023-04-25T04:17:44.392Z,3.00
2023-04-25T04:20:12.311Z,2.60
2023-04-25T04:22:39.052Z,3.00
2023-04-25T04:25:07.091Z,2.70
2023-04-25T04:27:33.762Z,2.43
2023-04-25T04:30:00.766Z,2.23
2023-04-25T04:32:28.666Z,2.47
2023-04-25T04:34:56.565Z,2.00
2023-04-25T04:37:23.952Z,2.20
2023-04-25T04:39:51.351Z,2.10
2023-04-25T04:42:18.373Z,1.97
2023-04-25T04:44:45.981Z,2.13
2023-04-25T04:47:15.186Z,2.07
2023-04-25T04:49:41.959Z,2.10
2023-04-25T04:52:11.049Z,1.80
2023-04-25T04:54:37.757Z,1.90
2023-04-25T04:57:04.418Z,1.90
2023-04-25T04:59:31.092Z,1.80
2023-04-25T05:01:57.843Z,2.00
2023-04-25T05:04:24.869Z,4.10
2023-04-25T05:06:52.444Z,2.40
2023-04-25T05:09:20.389Z,2.10
2023-04-25T05:11:47.191Z,1.87
2023-04-25T05:14:13.910Z,1.60
2023-04-25T05:16:40.631Z,1.80
2023-04-25T05:19:07.422Z,1.60
2023-04-25T05:21:34.089Z,1.63
2023-04-25T05:24:00.972Z,1.80
2023-04-25T05:26:32.255Z,1.70
2023-04-25T05:28:59.243Z,1.60
2023-04-25T05:31:25.985Z,1.57
2023-04-25T05:33:53.173Z,2.07
2023-04-25T05:36:20.754Z,2.97
2023-04-25T05:38:47.442Z,1.60
2023-04-25T05:41:14.399Z,2.00
2023-04-25T05:43:51.310Z,1.70
2023-04-25T05:46:18.370Z,2.23
2023-04-25T05:48:45.291Z,3.73
2023-04-25T05:51:12.108Z,2.30
2023-04-25T05:53:38.751Z,1.80
2023-04-25T05:56:05.780Z,2.63
2023-04-25T05:58:33.262Z,2.40
2023-04-25T06:01:00.560Z,1.90
2023-04-25T06:03:27.497Z,2.20
2023-04-25T06:05:54.356Z,2.03
2023-04-25T06:08:21.427Z,1.90
2023-04-25T06:10:48.112Z,2.20
2023-04-25T06:13:14.911Z,2.10
2023-04-25T06:15:42.617Z,1.70
2023-04-25T06:18:16.223Z,1.80
2023-04-25T06:20:42.983Z,1.93
2023-04-25T06:23:09.948Z,1.80
2023-04-25T06:25:36.775Z,2.07
2023-04-25T06:28:03.585Z,2.90
2023-04-25T06:30:30.971Z,3.87
2023-04-25T06:32:57.617Z,2.50
2023-04-25T06:35:26.868Z,2.43
2023-04-25T06:37:53.755Z,3.07
2023-04-25T06:40:20.489Z,2.50
2023-04-25T06:42:47.177Z,1.83
2023-04-25T06:45:13.895Z,1.97
2023-04-25T06:47:40.627Z,1.93
2023-04-25T06:50:08.148Z,2.00
2023-04-25T06:52:34.784Z,1.90
2023-04-25T06:55:01.447Z,2.00
2023-04-25T06:57:28.229Z,2.20
2023-04-25T06:59:55.038Z,2.07
2023-04-25T07:02:23.091Z,1.80
2023-04-25T07:04:49.988Z,2.10
2023-04-25T07:07:18.210Z,2.00
2023-04-25T07:09:44.962Z,2.10
2023-04-25T07:12:11.662Z,2.30
2023-04-25T07:14:38.872Z,2.40
2023-04-25T07:17:07.905Z,2.50
2023-04-25T07:19:34.705Z,2.10
2023-04-25T07:22:01.705Z,1.93
2023-04-25T07:24:28.450Z,2.10
2023-04-25T07:26:55.114Z,1.90
2023-04-25T07:29:22.037Z,2.00
2023-04-25T07:31:49.268Z,2.10
2023-04-25T07:34:16.755Z,2.07
2023-04-25T07:36:43.460Z,2.20
2023-04-25T07:39:10.439Z,2.00
2023-04-25T07:41:37.112Z,1.70
2023-04-25T07:44:03.985Z,2.10
2023-04-25T07:46:30.768Z,2.00
2023-04-25T07:48:57.434Z,1.90
2023-04-25T07:51:24.053Z,2.10
2023-04-25T07:53:50.904Z,1.73
2023-04-25T07:56:17.838Z,1.83
2023-04-25T07:58:44.663Z,2.00
2023-04-25T08:01:11.520Z,2.10
2023-04-25T08:03:38.422Z,2.80
2023-04-25T08:06:08.195Z,2.10
2023-04-25T08:08:35.337Z,1.90
2023-04-25T08:11:01.976Z,1.80
2023-04-25T08:13:31.699Z,2.00
2023-04-25T08:15:58.447Z,2.20
2023-04-25T08:18:25.209Z,1.80
2023-04-25T08:20:52.093Z,1.70
2023-04-25T08:23:21.274Z,1.70
2023-04-25T08:25:48.000Z,1.73
2023-04-25T08:28:16.334Z,1.90
2023-04-25T08:30:42.962Z,1.80
2023-04-25T08:33:09.736Z,2.07
2023-04-25T08:35:36.690Z,2.00
2023-04-25T08:38:03.468Z,1.93
2023-04-25T08:40:31.377Z,1.80
2023-04-25T08:43:04.405Z,2.03
2023-04-25T08:45:33.415Z,2.20
2023-04-25T08:48:01.347Z,2.43
2023-04-25T08:50:28.460Z,2.80
2023-04-25T08:52:57.903Z,1.93
2023-04-25T08:55:25.330Z,2.30
2023-04-25T08:57:53.194Z,1.80
2023-04-25T09:00:20.251Z,1.90
2023-04-25T09:02:48.313Z,1.70
2023-04-25T09:05:15.720Z,1.67
2023-04-25T09:07:42.522Z,1.80
2023-04-25T09:10:09.848Z,1.63
2023-04-25T09:12:37.534Z,1.83
2023-04-25T09:15:09.762Z,1.90
2023-04-25T09:17:41.370Z,1.80
2023-04-25T09:20:13.183Z,2.00
2023-04-25T09:22:40.076Z,2.00
2023-04-25T09:25:12.457Z,1.70
2023-04-25T09:27:52.885Z,1.70
2023-04-25T09:32:48.155Z,1.93
2023-04-25T09:35:26.698Z,2.40
2023-04-25T09:37:53.412Z,1.93
2023-04-25T09:40:20.118Z,2.10
2023-04-25T09:42:46.925Z,2.20
2023-04-25T09:45:14.626Z,2.00
2023-04-25T09:47:45.128Z,1.80
2023-04-25T09:52:45.246Z,2.00
2023-04-25T09:55:12.438Z,1.90
2023-04-25T09:57:42.569Z,1.87
2023-04-25T10:00:12.147Z,2.05
2023-04-25T10:02:43.655Z,1.70
2023-04-25T10:05:11.954Z,1.80
2023-04-25T10:07:39.983Z,1.87
2023-04-25T10:10:07.288Z,1.77
2023-04-25T10:12:35.035Z,1.73
2023-04-25T10:15:02.602Z,1.80
2023-04-25T10:17:29.634Z,1.60
2023-04-25T10:19:57.510Z,1.50
2023-04-25T10:22:42.389Z,1.50
2023-04-25T10:25:10.201Z,1.50
2023-04-25T10:27:38.296Z,1.80
2023-04-25T10:30:11.490Z,1.70
2023-04-25T10:32:38.474Z,1.43
2023-04-25T10:35:18.857Z,1.83
2023-04-25T10:38:12.540Z,1.60
2023-04-25T10:40:39.598Z,1.50
2023-04-25T10:43:35.914Z,1.67
2023-04-25T10:46:03.152Z,1.60
2023-04-25T10:48:31.747Z,1.33
2023-04-25T10:51:12.154Z,1.30
2023-04-25T10:53:38.948Z,1.37
2023-04-25T10:56:33.126Z,1.37
2023-04-25T10:59:12.915Z,1.43
2023-04-25T11:01:45.906Z,1.40
2023-04-25T11:04:35.527Z,1.57
2023-04-25T11:07:11.483Z,1.30
2023-04-25T11:09:42.131Z,1.33
2023-04-25T11:12:10.105Z,1.30
2023-04-25T11:14:37.611Z,1.40
2023-04-25T11:17:04.463Z,1.40
2023-04-25T11:19:31.672Z,1.57
2023-04-25T11:21:59.923Z,1.40
2023-04-25T11:24:33.648Z,1.60
2023-04-25T11:27:01.134Z,1.60
2023-04-25T11:29:28.485Z,1.70
2023-04-25T11:31:59.752Z,1.43
2023-04-25T11:34:27.418Z,1.50
2023-04-25T11:36:54.975Z,1.43
2023-04-25T11:39:21.981Z,1.60
2023-04-25T11:41:49.124Z,1.33
2023-04-25T11:44:19.859Z,1.50
2023-04-25T11:46:47.150Z,1.50
2023-04-25T11:49:15.391Z,1.50
2023-04-25T11:51:48.034Z,1.50
2023-04-25T11:54:15.536Z,1.53
2023-04-25T11:56:46.339Z,1.50
2023-04-25T11:59:14.118Z,1.70
2023-04-25T12:01:48.712Z,1.30
2023-04-25T12:04:21.420Z,1.50
2023-04-25T12:06:50.156Z,1.57
2023-04-25T12:09:22.713Z,1.80
2023-04-25T12:11:54.943Z,1.60
2023-04-25T12:14:28.382Z,1.30
2023-04-25T12:17:01.831Z,1.50
2023-04-25T12:19:34.645Z,1.30
2023-04-25T12:22:04.306Z,1.10
2023-04-25T12:24:38.398Z,1.55
2023-04-25T12:27:09.585Z,1.30
2023-04-25T12:29:48.685Z,1.50
2023-04-25T12:32:18.255Z,1.60
2023-04-25T12:34:45.046Z,7.43
2023-04-25T12:37:12.587Z,3.53
2023-04-25T12:39:39.565Z,1.67
2023-04-25T12:42:09.821Z,1.50
2023-04-25T12:44:37.978Z,1.60
2023-04-25T12:47:05.412Z,1.80
2023-04-25T12:49:32.835Z,1.50
2023-04-25T12:51:59.957Z,1.60
2023-04-25T12:54:27.189Z,1.80
2023-04-25T12:56:53.980Z,1.57
2023-04-25T12:59:21.641Z,1.60
2023-04-25T13:01:48.914Z,1.33
2023-04-25T13:04:16.248Z,1.50
2023-04-25T13:06:44.227Z,1.50
2023-04-25T13:09:13.843Z,1.40
2023-04-25T13:11:41.628Z,1.65
2023-04-25T13:14:18.413Z,1.60
2023-04-25T13:16:47.009Z,1.83
2023-04-25T13:19:13.926Z,1.60
2023-04-25T13:21:40.617Z,1.70
2023-04-25T13:24:07.823Z,1.50
2023-04-25T13:26:34.509Z,1.50
2023-04-25T13:29:01.710Z,1.30
2023-04-25T13:31:30.738Z,1.40
2023-04-25T13:33:57.418Z,1.60
2023-04-25T13:36:24.051Z,1.47
2023-04-25T13:38:51.024Z,1.57
2023-04-25T13:41:19.985Z,1.47
2023-04-25T13:43:50.087Z,1.73
2023-04-25T13:46:35.161Z,1.50
2023-04-25T13:49:12.168Z,1.70
2023-04-25T13:51:40.000Z,1.70
2023-04-25T13:54:06.799Z,1.60
2023-04-25T13:56:33.557Z,1.47
2023-04-25T13:59:00.241Z,1.67
2023-04-25T14:01:28.697Z,1.70
2023-04-25T14:03:55.747Z,1.30
2023-04-25T14:06:25.068Z,1.67
2023-04-25T14:08:52.078Z,1.80
2023-04-25T14:11:19.524Z,2.00
2023-04-25T14:13:46.998Z,2.13
2023-04-25T14:16:13.922Z,1.73
2023-04-25T14:18:41.124Z,1.90
2023-04-25T14:21:08.235Z,1.80
2023-04-25T14:23:35.085Z,1.83
2023-04-25T14:26:01.968Z,1.90
2023-04-25T14:28:28.725Z,1.60
2023-04-25T14:30:55.654Z,1.80
2023-04-25T14:33:23.267Z,1.80
2023-04-25T14:35:49.917Z,1.80
2023-04-25T14:38:16.742Z,1.73
2023-04-25T14:40:43.673Z,1.90
2023-04-25T14:43:10.305Z,2.13
2023-04-25T14:45:37.057Z,1.80
2023-04-25T14:48:04.084Z,1.83
2023-04-25T14:50:31.276Z,1.83
2023-04-25T14:53:00.296Z,1.60
2023-04-25T14:55:28.016Z,1.77
2023-04-25T14:57:57.433Z,1.80
2023-04-25T15:00:24.560Z,2.08
2023-04-25T15:02:51.687Z,2.10
2023-04-25T15:05:19.040Z,2.00
2023-04-25T15:07:45.705Z,2.10
2023-04-25T15:10:16.787Z,1.97
2023-04-25T15:12:48.010Z,1.80
2023-04-25T15:15:22.498Z,1.93
2023-04-25T15:17:53.774Z,2.13
2023-04-25T15:20:21.676Z,1.70
2023-04-25T15:22:49.959Z,1.60
2023-04-25T15:25:19.257Z,1.87
2023-04-25T15:27:49.274Z,1.73
2023-04-25T15:30:18.051Z,1.65
2023-04-25T15:32:48.621Z,1.80
2023-04-25T15:35:16.278Z,1.80
2023-04-25T15:37:43.600Z,1.50
2023-04-25T15:40:13.955Z,1.47
2023-04-25T15:42:48.144Z,1.70
2023-04-25T15:45:17.988Z,1.97
2023-04-25T15:47:45.536Z,1.70
2023-04-25T15:50:13.343Z,1.90
2023-04-25T15:52:40.095Z,1.80
2023-04-25T15:55:07.976Z,1.90
2023-04-25T15:57:36.290Z,1.73
2023-04-25T16:00:17.988Z,2.20
2023-04-25T16:02:52.886Z,1.73
2023-04-25T16:05:20.059Z,1.90
2023-04-25T16:07:47.972Z,1.77
2023-04-25T16:10:17.377Z,1.90
2023-04-25T16:12:44.104Z,1.70
2023-04-25T16:15:11.615Z,6.37
2023-04-25T16:17:38.372Z,2.00
2023-04-25T16:20:10.464Z,1.67
2023-04-25T16:22:39.716Z,1.90
2023-04-25T16:25:07.665Z,2.03
2023-04-25T16:27:38.961Z,1.90
2023-04-25T16:30:08.445Z,2.00
2023-04-25T16:32:35.961Z,1.70
2023-04-25T16:35:03.428Z,1.80
2023-04-25T16:37:30.274Z,1.83
2023-04-25T16:39:57.035Z,1.90
2023-04-25T16:42:25.131Z,1.87
2023-04-25T16:44:52.182Z,1.70
2023-04-25T16:47:20.400Z,1.80
2023-04-25T16:49:47.560Z,1.80
2023-04-25T16:52:15.435Z,2.10
2023-04-25T16:54:42.217Z,2.00
2023-04-25T16:57:11.531Z,1.90
2023-04-25T16:59:39.449Z,1.83
2023-04-25T17:02:08.481Z,1.87
2023-04-25T17:04:38.586Z,2.00
2023-04-25T17:07:05.711Z,2.00
2023-04-25T17:09:33.057Z,1.80
2023-04-25T17:12:00.198Z,2.10
2023-04-25T17:14:27.292Z,2.20
2023-04-25T17:16:54.127Z,1.93
2023-04-25T17:19:21.752Z,1.87
2023-04-25T17:21:48.470Z,2.03
2023-04-25T17:24:16.025Z,1.97
2023-04-25T17:26:44.354Z,1.70
2023-04-25T17:29:13.064Z,1.90
2023-04-25T17:31:41.006Z,1.80
2023-04-25T17:34:10.305Z,1.83
2023-04-25T17:36:37.990Z,2.03
2023-04-25T17:39:07.149Z,2.87
2023-04-25T17:41:35.035Z,2.43
2023-04-25T17:44:02.743Z,2.00
2023-04-25T17:46:30.335Z,2.40
2023-04-25T17:49:00.840Z,2.23
2023-04-25T17:51:28.913Z,2.00
2023-04-25T17:53:57.667Z,2.40
2023-04-25T17:56:27.465Z,2.00
2023-04-25T17:58:56.386Z,2.03
2023-04-25T18:01:24.340Z,2.13
2023-04-25T18:03:52.532Z,2.30
2023-04-25T18:06:20.538Z,2.07
2023-04-25T18:08:48.545Z,1.90
2023-04-25T18:11:17.373Z,1.90
2023-04-25T18:13:48.054Z,2.00
2023-04-25T18:18:45.179Z,2.00
2023-04-25T18:21:15.215Z,2.30
2023-04-25T18:23:42.331Z,2.33
2023-04-25T18:26:09.076Z,1.70
2023-04-25T18:28:35.814Z,1.90
2023-04-25T18:31:03.011Z,1.97
2023-04-25T18:33:29.954Z,2.10
2023-04-25T18:35:59.566Z,2.47
2023-04-25T18:41:13.073Z,2.00
2023-04-25T18:43:45.614Z,2.03
2023-04-25T18:46:13.229Z,1.80
2023-04-25T18:48:40.764Z,1.80
2023-04-25T18:51:09.231Z,2.10
2023-04-25T18:53:37.951Z,2.20
2023-04-25T18:56:05.894Z,1.83
2023-04-25T18:58:33.194Z,2.20
2023-04-25T19:01:03.117Z,2.40
2023-04-25T19:03:30.198Z,3.10
2023-04-25T19:05:59.386Z,8.83
2023-04-25T19:08:27.578Z,6.10
2023-04-25T19:10:54.479Z,5.50
2023-04-25T19:13:21.872Z,3.83
2023-04-25T19:15:49.169Z,4.23
2023-04-25T19:18:17.508Z,4.10
2023-04-25T19:20:44.688Z,4.87
2023-04-25T19:23:11.429Z,4.50
2023-04-25T19:25:38.162Z,4.40
2023-04-25T19:28:05.137Z,3.67
2023-04-25T19:30:32.010Z,5.10
2023-04-25T19:32:59.215Z,4.60
2023-04-25T19:35:30.918Z,4.90
2023-04-25T19:37:57.718Z,4.40
2023-04-25T19:40:25.576Z,5.00
2023-04-25T19:42:52.265Z,5.53
2023-04-25T19:45:19.422Z,5.90
2023-04-25T19:47:46.118Z,5.00
2023-04-25T19:50:13.157Z,5.97
2023-04-25T19:52:40.692Z,5.90
2023-04-25T19:55:08.517Z,5.67
2023-04-25T19:57:38.022Z,3.80
2023-04-25T20:00:11.098Z,4.30
2023-04-25T20:02:38.408Z,2.90
2023-04-25T20:05:07.199Z,3.80
2023-04-25T20:07:35.378Z,4.40
2023-04-25T20:10:03.154Z,3.83
2023-04-25T20:12:30.539Z,4.47
2023-04-25T20:14:59.175Z,4.60
2023-04-25T20:17:26.588Z,3.83
2023-04-25T20:19:54.005Z,3.80
2023-04-25T20:22:21.914Z,6.87
2023-04-25T20:24:53.372Z,8.70
2023-04-25T20:27:22.154Z,7.93
2023-04-25T20:29:49.386Z,9.73
2023-04-25T20:32:16.616Z,9.23
2023-04-25T20:34:43.972Z,7.50
2023-04-25T20:37:11.339Z,7.53
2023-04-25T20:39:38.138Z,7.57
2023-04-25T20:42:04.836Z,7.27
2023-04-25T20:44:32.671Z,8.10
2023-04-25T20:47:00.296Z,5.10
2023-04-25T20:49:27.507Z,5.57
2023-04-25T20:51:54.773Z,5.70
2023-04-25T20:54:21.862Z,7.60
2023-04-25T20:56:48.496Z,7.30
2023-04-25T20:59:15.622Z,7.67
2023-04-25T21:01:43.011Z,14.10
2023-04-25T21:04:10.676Z,5.27
2023-04-25T21:06:38.362Z,5.00
2023-04-25T21:09:07.482Z,4.90
2023-04-25T21:11:35.198Z,4.50
2023-04-25T21:14:03.000Z,5.90
2023-04-25T21:16:34.933Z,4.00
2023-04-25T21:19:03.253Z,4.77
2023-04-25T21:21:32.265Z,4.40
2023-04-25T21:24:00.086Z,4.13
2023-04-25T21:26:28.578Z,4.10
2023-04-25T21:28:56.075Z,3.77
2023-04-25T21:31:23.649Z,4.10
2023-04-25T21:33:51.299Z,3.10
2023-04-25T21:36:18.785Z,4.23
2023-04-25T21:38:46.301Z,3.53
2023-04-25T21:41:14.187Z,3.30
2023-04-25T21:43:42.430Z,2.93
2023-04-25T21:51:08.346Z,3.57
2023-04-25T21:53:35.994Z,3.60
2023-04-25T21:56:03.666Z,3.50
2023-04-25T21:58:31.456Z,3.10
2023-04-25T22:01:00.554Z,3.43
2023-04-25T22:03:28.261Z,3.30
2023-04-25T22:05:57.051Z,3.23
2023-04-25T22:08:24.708Z,2.70
2023-04-25T22:10:53.831Z,3.07
2023-04-25T22:13:21.464Z,2.97
2023-04-25T22:15:49.376Z,3.43
2023-04-25T22:18:17.026Z,3.00
2023-04-25T22:20:45.080Z,2.80
2023-04-25T22:23:12.757Z,2.40
2023-04-25T22:25:40.608Z,3.13
2023-04-25T22:28:07.963Z,3.03
2023-04-25T22:30:35.220Z,2.80
2023-04-25T22:33:02.111Z,2.63
2023-04-25T22:35:28.921Z,2.90
2023-04-25T22:37:55.576Z,4.00
2023-04-25T22:40:22.475Z,3.23
2023-04-25T22:42:49.137Z,3.47
2023-04-25T22:45:16.202Z,3.10
2023-04-25T22:47:44.403Z,3.83
2023-04-25T22:50:16.828Z,2.77
2023-04-25T22:52:43.948Z,2.93
2023-04-25T22:55:12.595Z,2.97
2023-04-25T22:57:39.599Z,2.60
2023-04-25T23:00:20.313Z,3.00
2023-04-25T23:02:47.947Z,3.27
2023-04-25T23:05:15.797Z,2.60
2023-04-25T23:07:43.877Z,2.70
2023-04-25T23:10:11.101Z,2.80
2023-04-25T23:12:38.076Z,2.90
2023-04-25T23:15:05.644Z,2.57
2023-04-25T23:17:32.615Z,2.63
2023-04-25T23:19:59.609Z,2.30
2023-04-25T23:22:26.799Z,2.80
2023-04-25T23:24:53.611Z,2.67
2023-04-25T23:27:20.325Z,3.00
2023-04-25T23:29:58.129Z,2.73
2023-04-25T23:32:26.301Z,2.50
2023-04-25T23:34:53.140Z,2.23
2023-04-25T23:37:20.427Z,3.37
2023-04-25T23:39:50.884Z,2.60
2023-04-25T23:44:44.983Z,2.20
2023-04-25T23:47:14.338Z,2.60
2023-04-25T23:49:41.304Z,2.47
2023-04-25T23:52:08.221Z,2.43
2023-04-25T23:54:35.110Z,2.50
2023-04-25T23:57:04.485Z,2.40
2023-04-25T23:59:32.167Z,2.53
